createdAt,value
2023-05-06T00:01:33.688Z,17.12
2023-05-06T00:04:04.291Z,17.10
2023-05-06T00:06:34.947Z,17.07
2023-05-06T00:09:05.461Z,17.04
2023-05-06T00:11:36.039Z,17.00
2023-05-06T00:14:06.576Z,16.98
2023-05-06T00:16:37.820Z,16.98
2023-05-06T00:19:08.723Z,16.97
2023-05-06T00:21:39.259Z,16.95
2023-05-06T00:24:09.947Z,16.94
2023-05-06T00:26:40.449Z,16.92
2023-05-06T00:29:10.923Z,16.91
2023-05-06T00:31:41.816Z,16.89
2023-05-06T00:34:12.454Z,16.87
2023-05-06T00:36:43.427Z,16.85
2023-05-06T00:39:14.005Z,16.82
2023-05-06T00:41:44.454Z,16.81
2023-05-06T00:44:15.254Z,16.80
2023-05-06T00:46:46.396Z,16.77
2023-05-06T00:49:17.761Z,16.76
2023-05-06T00:51:48.728Z,16.75
2023-05-06T00:54:19.718Z,16.73
2023-05-06T00:56:50.426Z,16.70
2023-05-06T00:59:21.280Z,16.67
2023-05-06T01:01:54.053Z,16.64
2023-05-06T01:04:25.169Z,16.64
2023-05-06T01:07:02.133Z,16.62
2023-05-06T01:09:40.628Z,16.60
2023-05-06T01:12:30.581Z,16.60
2023-05-06T01:15:08.836Z,16.58
2023-05-06T01:17:47.447Z,16.58
2023-05-06T01:20:21.000Z,16.56
2023-05-06T01:22:52.333Z,16.54
2023-05-06T01:25:24.374Z,16.52
2023-05-06T01:27:54.855Z,16.49
2023-05-06T01:30:28.883Z,16.47
2023-05-06T01:33:08.664Z,16.45
2023-05-06T01:35:47.578Z,16.43
2023-05-06T01:38:24.354Z,16.42
2023-05-06T01:40:58.972Z,16.41
2023-05-06T01:43:36.054Z,16.40
2023-05-06T01:46:07.972Z,16.39
2023-05-06T01:48:41.010Z,16.37
2023-05-06T01:51:11.514Z,16.37
2023-05-06T01:53:41.968Z,16.36
2023-05-06T01:56:12.543Z,16.35
2023-05-06T01:58:43.000Z,16.33
2023-05-06T02:01:13.518Z,16.34
2023-05-06T02:03:44.113Z,16.33
2023-05-06T02:06:14.791Z,16.31
2023-05-06T02:08:45.565Z,16.30
2023-05-06T02:11:21.230Z,16.27
2023-05-06T02:13:53.331Z,16.26
2023-05-06T02:16:23.937Z,16.24
2023-05-06T02:18:55.052Z,16.23
2023-05-06T02:21:26.488Z,16.21
2023-05-06T02:23:56.972Z,16.20
2023-05-06T02:26:27.577Z,16.19
2023-05-06T02:28:58.170Z,16.19
2023-05-06T02:31:28.693Z,16.18
2023-05-06T02:33:59.151Z,16.17
2023-05-06T02:36:29.796Z,16.15
2023-05-06T02:39:00.250Z,16.14
2023-05-06T02:41:31.661Z,16.14
2023-05-06T02:44:02.089Z,16.12
2023-05-06T02:46:32.599Z,16.12
2023-05-06T02:49:03.351Z,16.09
2023-05-06T02:51:33.808Z,16.08
2023-05-06T02:54:04.463Z,16.08
2023-05-06T02:56:35.248Z,16.07
2023-05-06T02:59:05.779Z,16.06
2023-05-06T03:01:36.358Z,16.05
2023-05-06T03:04:07.120Z,16.04
2023-05-06T03:06:37.646Z,16.02
2023-05-06T03:09:08.762Z,16.00
2023-05-06T03:11:39.866Z,16.01
2023-05-06T03:14:10.406Z,16.01
2023-05-06T03:16:40.909Z,16.00
2023-05-06T03:19:11.626Z,15.99
2023-05-06T03:21:42.640Z,15.99
2023-05-06T03:24:13.274Z,15.97
2023-05-06T03:26:43.735Z,15.95
2023-05-06T03:29:15.830Z,15.94
2023-05-06T03:31:46.733Z,15.92
2023-05-06T03:34:17.702Z,15.90
2023-05-06T03:36:48.686Z,15.89
2023-05-06T03:39:19.461Z,15.88
2023-05-06T03:41:50.066Z,15.88
2023-05-06T03:44:21.679Z,15.87
2023-05-06T03:46:52.154Z,15.87
2023-05-06T03:49:22.731Z,15.86
2023-05-06T03:51:53.616Z,15.82
2023-05-06T03:54:24.793Z,15.81
2023-05-06T03:56:55.386Z,15.80
2023-05-06T03:59:26.021Z,15.79
2023-05-06T04:01:57.006Z,15.77
2023-05-06T04:04:28.347Z,15.74
2023-05-06T04:06:58.047Z,15.73
2023-05-06T04:09:28.502Z,15.71
2023-05-06T04:11:59.347Z,15.70
2023-05-06T04:14:30.407Z,15.68
2023-05-06T04:17:01.060Z,15.67
2023-05-06T04:19:32.170Z,15.66
2023-05-06T04:22:02.651Z,15.67
2023-05-06T04:24:33.957Z,15.67
2023-05-06T04:27:05.890Z,15.66
2023-05-06T04:29:36.496Z,15.65
2023-05-06T04:32:07.813Z,15.66
2023-05-06T04:34:37.401Z,15.65
2023-05-06T04:37:08.594Z,15.61
2023-05-06T04:39:47.255Z,15.61
2023-05-06T04:42:18.197Z,15.60
2023-05-06T04:45:08.702Z,15.59
2023-05-06T04:47:40.366Z,15.57
2023-05-06T04:50:13.014Z,15.56
2023-05-06T04:52:44.769Z,15.56
2023-05-06T04:55:16.235Z,15.55
2023-05-06T04:57:50.850Z,15.54
2023-05-06T05:00:22.350Z,15.52
2023-05-06T05:02:52.930Z,15.50
2023-05-06T05:05:23.564Z,15.47
2023-05-06T05:07:55.220Z,15.46
2023-05-06T05:10:25.850Z,15.47
2023-05-06T05:12:56.785Z,15.47
2023-05-06T05:15:27.831Z,15.44
2023-05-06T05:17:58.912Z,15.42
2023-05-06T05:20:30.145Z,15.40
2023-05-06T05:23:03.059Z,15.38
2023-05-06T05:25:34.556Z,15.36
2023-05-06T05:28:05.188Z,15.36
2023-05-06T05:30:36.543Z,15.35
2023-05-06T05:33:07.245Z,15.34
2023-05-06T05:35:38.061Z,15.32
2023-05-06T05:38:10.038Z,15.32
2023-05-06T05:40:42.170Z,15.31
2023-05-06T05:43:13.077Z,15.31
2023-05-06T05:45:44.423Z,15.31
2023-05-06T05:48:15.190Z,15.30
2023-05-06T05:50:46.023Z,15.28
2023-05-06T05:53:17.376Z,15.27
2023-05-06T05:55:48.361Z,15.26
2023-05-06T05:58:19.550Z,15.24
2023-05-06T06:00:50.708Z,15.23
2023-05-06T06:03:21.751Z,15.22
2023-05-06T06:05:55.392Z,15.22
2023-05-06T06:08:27.687Z,15.24
2023-05-06T06:10:59.039Z,15.28
2023-05-06T06:13:34.149Z,15.30
2023-05-06T06:16:04.780Z,15.31
2023-05-06T06:18:37.044Z,15.31
2023-05-06T06:21:07.894Z,15.32
2023-05-06T06:23:38.716Z,15.33
2023-05-06T06:26:10.968Z,15.34
2023-05-06T06:28:44.631Z,15.36
2023-05-06T06:31:15.389Z,15.37
2023-05-06T06:33:45.911Z,15.37
2023-05-06T06:36:16.578Z,15.36
2023-05-06T06:38:46.997Z,15.32
2023-05-06T06:41:17.692Z,15.30
2023-05-06T06:43:48.147Z,15.30
2023-05-06T06:46:22.886Z,15.29
2023-05-06T06:48:53.438Z,15.29
2023-05-06T06:51:24.104Z,15.31
2023-05-06T06:53:55.253Z,15.34
2023-05-06T06:56:25.896Z,15.33
2023-05-06T06:58:56.320Z,15.30
2023-05-06T07:01:26.807Z,15.27
2023-05-06T07:03:57.297Z,15.23
2023-05-06T07:06:27.781Z,15.20
2023-05-06T07:08:58.279Z,15.16
2023-05-06T07:11:28.837Z,15.16
2023-05-06T07:14:00.001Z,15.15
2023-05-06T07:16:30.480Z,15.11
2023-05-06T07:19:01.093Z,15.09
2023-05-06T07:21:32.516Z,15.07
2023-05-06T07:24:03.124Z,15.05
2023-05-06T07:26:36.176Z,15.01
2023-05-06T07:29:06.905Z,14.98
2023-05-06T07:31:37.494Z,14.96
2023-05-06T07:34:08.766Z,14.95
2023-05-06T07:36:43.173Z,14.91
2023-05-06T07:39:15.844Z,14.89
2023-05-06T07:41:46.593Z,14.89
2023-05-06T07:44:17.037Z,14.89
2023-05-06T07:46:47.867Z,14.85
2023-05-06T07:49:18.457Z,14.82
2023-05-06T07:51:48.972Z,14.80
2023-05-06T07:54:19.456Z,14.78
2023-05-06T07:56:49.925Z,14.76
2023-05-06T07:59:20.425Z,14.75
2023-05-06T08:01:50.892Z,14.73
2023-05-06T08:04:21.593Z,14.71
2023-05-06T08:06:52.155Z,14.70
2023-05-06T08:09:23.324Z,14.67
2023-05-06T08:11:54.204Z,14.66
2023-05-06T08:14:26.054Z,14.65
2023-05-06T08:16:55.235Z,14.64
2023-05-06T08:19:26.569Z,14.61
2023-05-06T08:21:57.200Z,14.60
2023-05-06T08:24:27.837Z,14.61
2023-05-06T08:26:58.355Z,14.60
2023-05-06T08:29:28.800Z,14.57
2023-05-06T08:31:59.310Z,14.55
2023-05-06T08:34:29.861Z,14.53
2023-05-06T08:37:00.346Z,14.48
2023-05-06T08:39:30.892Z,14.44
2023-05-06T08:42:02.996Z,14.43
2023-05-06T08:44:33.716Z,14.43
2023-05-06T08:47:04.476Z,14.43
2023-05-06T08:49:35.220Z,14.48
2023-05-06T08:52:07.613Z,14.52
2023-05-06T08:54:39.069Z,14.54
2023-05-06T08:57:12.596Z,14.58
2023-05-06T08:59:45.154Z,14.61
2023-05-06T09:02:15.799Z,14.64
2023-05-06T09:04:48.087Z,14.67
2023-05-06T09:07:18.643Z,14.72
2023-05-06T09:09:49.511Z,14.76
2023-05-06T09:12:20.050Z,14.79
2023-05-06T09:14:52.506Z,14.82
2023-05-06T09:17:26.680Z,14.85
2023-05-06T09:19:58.909Z,14.87
2023-05-06T09:22:29.105Z,14.88
2023-05-06T09:25:00.434Z,14.84
2023-05-06T09:27:33.108Z,14.83
2023-05-06T09:30:06.154Z,14.83
2023-05-06T09:32:39.994Z,14.83
2023-05-06T09:35:12.699Z,14.82
2023-05-06T09:37:45.916Z,14.82
2023-05-06T09:40:17.015Z,14.80
2023-05-06T09:42:51.668Z,14.80
2023-05-06T09:45:24.343Z,14.78
2023-05-06T09:47:55.737Z,14.78
2023-05-06T09:50:27.143Z,14.78
2023-05-06T09:52:59.695Z,14.78
2023-05-06T09:55:31.387Z,14.78
2023-05-06T09:58:04.768Z,14.79
2023-05-06T10:00:36.225Z,14.79
2023-05-06T10:03:07.705Z,14.78
2023-05-06T10:05:40.992Z,14.77
2023-05-06T10:08:13.236Z,14.76
2023-05-06T10:10:45.142Z,14.75
2023-05-06T10:13:14.692Z,14.73
2023-05-06T10:15:46.604Z,14.70
2023-05-06T10:18:16.676Z,14.70
2023-05-06T10:20:48.973Z,14.71
2023-05-06T10:23:27.037Z,14.74
2023-05-06T10:26:02.414Z,14.77
2023-05-06T10:28:33.770Z,14.80
2023-05-06T10:31:08.637Z,14.82
2023-05-06T10:33:40.974Z,14.84
2023-05-06T10:36:20.505Z,14.88
2023-05-06T10:38:56.411Z,14.90
2023-05-06T10:41:29.036Z,14.90
2023-05-06T10:44:00.357Z,14.91
2023-05-06T10:46:32.849Z,14.91
2023-05-06T10:49:20.890Z,14.90
2023-05-06T10:52:13.404Z,14.89
2023-05-06T10:54:53.925Z,14.87
2023-05-06T10:57:27.343Z,14.87
2023-05-06T10:59:58.444Z,14.86
2023-05-06T11:02:32.753Z,14.86
2023-05-06T11:05:05.824Z,14.86
2023-05-06T11:07:36.837Z,14.86
2023-05-06T11:10:12.053Z,14.87
2023-05-06T11:12:50.318Z,14.86
2023-05-06T11:15:41.362Z,14.87
2023-05-06T11:18:45.142Z,14.89
2023-05-06T11:21:38.856Z,14.91
2023-05-06T11:24:22.950Z,14.91
2023-05-06T11:26:53.966Z,14.93
2023-05-06T11:29:25.029Z,14.97
2023-05-06T11:31:55.861Z,15.03
2023-05-06T11:34:28.967Z,15.07
2023-05-06T11:37:02.559Z,15.11
2023-05-06T11:39:39.817Z,15.14
2023-05-06T11:42:11.866Z,15.17
2023-05-06T11:44:42.441Z,15.20
2023-05-06T11:47:12.910Z,15.22
2023-05-06T11:49:44.446Z,15.25
2023-05-06T11:52:15.923Z,15.27
2023-05-06T11:54:47.476Z,15.29
2023-05-06T11:57:20.773Z,15.31
2023-05-06T11:59:56.220Z,15.31
2023-05-06T12:02:26.785Z,15.32
2023-05-06T12:04:58.496Z,15.32
2023-05-06T12:07:29.304Z,15.32
2023-05-06T12:10:04.031Z,15.31
2023-05-06T12:12:34.898Z,15.31
2023-05-06T12:15:05.969Z,15.29
2023-05-06T12:17:36.770Z,15.28
2023-05-06T12:20:11.607Z,15.28
2023-05-06T12:22:42.975Z,15.27
2023-05-06T12:25:18.325Z,15.26
2023-05-06T12:27:48.775Z,15.29
2023-05-06T12:30:32.353Z,15.32
2023-05-06T12:33:03.838Z,15.34
2023-05-06T12:35:34.978Z,15.36
2023-05-06T12:38:12.812Z,15.38
2023-05-06T12:40:47.037Z,15.39
2023-05-06T12:43:17.816Z,15.40
2023-05-06T12:46:05.769Z,15.41
2023-05-06T12:48:36.473Z,15.40
2023-05-06T12:51:21.906Z,15.40
2023-05-06T12:53:52.518Z,15.39
2023-05-06T12:56:23.691Z,15.39
2023-05-06T12:59:04.386Z,15.40
2023-05-06T13:01:35.584Z,15.41
2023-05-06T13:04:06.537Z,15.42
2023-05-06T13:06:37.001Z,15.43
2023-05-06T13:09:07.661Z,15.43
2023-05-06T13:11:38.194Z,15.43
2023-05-06T13:14:09.133Z,15.43
2023-05-06T13:16:40.318Z,15.44
2023-05-06T13:19:21.187Z,15.46
2023-05-06T13:21:55.651Z,15.49
2023-05-06T13:24:26.524Z,15.50
2023-05-06T13:27:00.626Z,15.52
2023-05-06T13:29:33.120Z,15.54
2023-05-06T13:32:05.730Z,15.55
2023-05-06T13:34:37.655Z,15.55
2023-05-06T13:37:08.153Z,15.56
2023-05-06T13:39:38.903Z,15.57
2023-05-06T13:42:09.437Z,15.59
2023-05-06T13:44:39.947Z,15.62
2023-05-06T13:47:10.424Z,15.63
2023-05-06T13:49:40.879Z,15.64
2023-05-06T13:52:11.360Z,15.64
2023-05-06T13:54:41.860Z,15.66
2023-05-06T13:57:12.322Z,15.66
2023-05-06T13:59:42.764Z,15.67
2023-05-06T14:02:13.784Z,15.68
2023-05-06T14:04:45.534Z,15.65
2023-05-06T14:07:16.076Z,15.61
2023-05-06T14:09:46.529Z,15.56
2023-05-06T14:12:17.329Z,15.54
2023-05-06T14:14:47.977Z,15.54
2023-05-06T14:17:18.909Z,15.52
2023-05-06T14:19:49.348Z,15.51
2023-05-06T14:22:19.862Z,15.51
2023-05-06T14:24:50.379Z,15.51
2023-05-06T14:27:20.917Z,15.52
2023-05-06T14:29:51.968Z,15.52
2023-05-06T14:32:22.496Z,15.52
2023-05-06T14:34:52.991Z,15.53
2023-05-06T14:37:23.461Z,15.53
2023-05-06T14:39:54.295Z,15.53
2023-05-06T14:42:24.744Z,15.53
2023-05-06T14:44:55.238Z,15.53
2023-05-06T14:47:26.433Z,15.53
2023-05-06T14:49:56.907Z,15.53
2023-05-06T14:52:27.411Z,15.51
2023-05-06T14:54:57.871Z,15.49
2023-05-06T14:57:28.337Z,15.46
2023-05-06T14:59:58.867Z,15.47
2023-05-06T15:02:29.477Z,15.46
2023-05-06T15:05:02.358Z,15.43
2023-05-06T15:07:34.463Z,15.42
2023-05-06T15:10:05.254Z,15.40
2023-05-06T15:12:36.408Z,15.38
2023-05-06T15:15:09.391Z,15.37
2023-05-06T15:17:41.866Z,15.35
2023-05-06T15:20:14.488Z,15.32
2023-05-06T15:22:44.968Z,15.28
2023-05-06T15:25:22.730Z,15.23
2023-05-06T15:28:04.869Z,15.19
2023-05-06T15:30:35.570Z,15.16
2023-05-06T15:33:06.319Z,15.12
2023-05-06T15:35:37.035Z,15.11
2023-05-06T15:38:07.545Z,15.09
2023-05-06T15:40:40.302Z,15.08
2023-05-06T15:43:13.847Z,15.06
2023-05-06T15:45:50.965Z,15.06
2023-05-06T15:48:21.475Z,15.05
2023-05-06T15:50:51.941Z,15.04
2023-05-06T15:53:22.708Z,15.01
2023-05-06T15:55:57.293Z,15.00
2023-05-06T15:58:32.638Z,14.98
2023-05-06T16:01:03.153Z,14.98
2023-05-06T16:03:33.776Z,14.97
2023-05-06T16:06:04.664Z,14.98
2023-05-06T16:08:35.171Z,14.97
2023-05-06T16:11:06.075Z,14.96
2023-05-06T16:13:36.552Z,14.97
2023-05-06T16:16:07.441Z,14.96
2023-05-06T16:18:37.956Z,14.94
2023-05-06T16:21:08.714Z,14.91
2023-05-06T16:23:39.209Z,14.90
2023-05-06T16:26:09.723Z,14.88
2023-05-06T16:28:40.320Z,14.86
2023-05-06T16:31:11.210Z,14.83
2023-05-06T16:33:41.816Z,14.81
2023-05-06T16:36:12.907Z,14.79
2023-05-06T16:38:43.410Z,14.77
2023-05-06T16:41:13.844Z,14.76
2023-05-06T16:43:44.329Z,14.75
2023-05-06T16:46:14.801Z,14.73
2023-05-06T16:48:45.317Z,14.72
2023-05-06T16:51:16.453Z,14.71
2023-05-06T16:53:47.727Z,14.73
2023-05-06T16:56:18.194Z,14.75
2023-05-06T16:58:48.685Z,14.77
2023-05-06T17:01:19.183Z,14.78
2023-05-06T17:03:49.756Z,14.77
2023-05-06T17:06:20.260Z,14.76
2023-05-06T17:08:50.700Z,14.76
2023-05-06T17:11:21.205Z,14.74
2023-05-06T17:13:52.996Z,14.71
2023-05-06T17:16:23.572Z,14.67
2023-05-06T17:18:54.054Z,14.62
2023-05-06T17:21:25.013Z,14.57
2023-05-06T17:23:55.983Z,14.52
2023-05-06T17:26:26.524Z,14.48
2023-05-06T17:28:57.336Z,14.45
2023-05-06T17:31:28.233Z,14.47
2023-05-06T17:33:58.906Z,14.48
2023-05-06T17:36:29.508Z,14.49
2023-05-06T17:39:06.099Z,14.51
2023-05-06T17:41:36.750Z,14.52
2023-05-06T17:44:07.700Z,14.53
2023-05-06T17:46:38.249Z,14.53
2023-05-06T17:49:08.926Z,14.52
2023-05-06T17:51:40.917Z,14.52
2023-05-06T17:54:11.402Z,14.52
2023-05-06T17:56:49.224Z,14.51
2023-05-06T17:59:21.115Z,14.50
2023-05-06T18:01:51.577Z,14.49
2023-05-06T18:04:22.075Z,14.47
2023-05-06T18:06:52.539Z,14.46
2023-05-06T18:09:23.025Z,14.44
2023-05-06T18:11:53.689Z,14.43
2023-05-06T18:14:24.165Z,14.45
2023-05-06T18:16:54.592Z,14.47
2023-05-06T18:19:25.038Z,14.46
2023-05-06T18:21:56.296Z,14.45
2023-05-06T18:24:26.795Z,14.43
2023-05-06T18:26:58.264Z,14.42
2023-05-06T18:29:30.406Z,14.42
2023-05-06T18:32:02.604Z,14.42
2023-05-06T18:34:33.205Z,14.40
2023-05-06T18:37:04.658Z,14.39
2023-05-06T18:39:35.246Z,14.38
2023-05-06T18:42:05.898Z,14.37
2023-05-06T18:44:36.397Z,14.35
2023-05-06T18:47:07.065Z,14.35
2023-05-06T18:49:37.953Z,14.35
2023-05-06T18:52:08.450Z,14.34
2023-05-06T18:54:39.612Z,14.30
2023-05-06T18:57:10.484Z,14.30
2023-05-06T18:59:41.260Z,14.29
2023-05-06T19:02:11.816Z,14.26
2023-05-06T19:04:42.277Z,14.24
2023-05-06T19:07:16.077Z,14.22
2023-05-06T19:09:46.758Z,14.22
2023-05-06T19:12:18.408Z,14.26
2023-05-06T19:14:48.885Z,14.29
2023-05-06T19:17:19.514Z,14.30
2023-05-06T19:19:50.108Z,14.32
2023-05-06T19:22:20.608Z,14.33
2023-05-06T19:24:51.048Z,14.33
2023-05-06T19:27:21.539Z,14.32
2023-05-06T19:29:52.016Z,14.30
2023-05-06T19:32:22.516Z,14.30
2023-05-06T19:34:53.020Z,14.28
2023-05-06T19:37:23.456Z,14.27
2023-05-06T19:39:53.872Z,14.26
2023-05-06T19:42:24.369Z,14.25
2023-05-06T19:44:54.924Z,14.23
2023-05-06T19:47:25.408Z,14.21
2023-05-06T19:49:55.867Z,14.18
2023-05-06T19:52:30.002Z,14.15
2023-05-06T19:55:03.259Z,14.13
2023-05-06T19:57:34.006Z,14.10
2023-05-06T20:00:09.987Z,14.08
2023-05-06T20:02:41.296Z,14.05
2023-05-06T20:05:13.185Z,14.03
2023-05-06T20:07:42.431Z,14.03
2023-05-06T20:10:14.222Z,14.00
2023-05-06T20:12:44.680Z,13.97
2023-05-06T20:15:15.831Z,13.93
2023-05-06T20:17:46.283Z,13.90
2023-05-06T20:20:17.613Z,13.89
2023-05-06T20:22:48.058Z,13.87
2023-05-06T20:25:19.724Z,13.86
2023-05-06T20:27:50.932Z,13.84
2023-05-06T20:30:21.646Z,13.81
2023-05-06T20:32:52.299Z,13.77
2023-05-06T20:35:23.001Z,13.74
2023-05-06T20:37:54.437Z,13.72
2023-05-06T20:40:25.096Z,13.72
2023-05-06T20:42:56.071Z,13.74
2023-05-06T20:45:27.659Z,13.76
2023-05-06T20:47:58.232Z,13.75
2023-05-06T20:50:30.003Z,13.74
2023-05-06T20:53:01.669Z,13.75
2023-05-06T20:55:32.289Z,13.76
2023-05-06T20:58:02.876Z,13.77
2023-05-06T21:00:33.346Z,13.78
2023-05-06T21:03:04.096Z,13.78
2023-05-06T21:05:34.663Z,13.77
2023-05-06T21:08:05.378Z,13.77
2023-05-06T21:10:35.845Z,13.76
2023-05-06T21:13:06.942Z,13.74
2023-05-06T21:15:38.207Z,13.73
2023-05-06T21:18:09.205Z,13.73
2023-05-06T21:20:39.764Z,13.73
2023-05-06T21:23:10.246Z,13.72
2023-05-06T21:25:40.769Z,13.72
2023-05-06T21:28:11.274Z,13.71
2023-05-06T21:30:41.822Z,13.71
2023-05-06T21:33:12.272Z,13.70
2023-05-06T21:35:42.727Z,13.69
2023-05-06T21:38:14.210Z,13.67
2023-05-06T21:40:44.657Z,13.66
2023-05-06T21:43:17.908Z,13.64
2023-05-06T21:45:48.370Z,13.63
2023-05-06T21:48:18.809Z,13.61
2023-05-06T21:50:49.236Z,13.59
2023-05-06T21:53:19.694Z,13.56
2023-05-06T21:55:50.121Z,13.54
2023-05-06T21:58:20.557Z,13.51
2023-05-06T22:00:52.359Z,13.50
2023-05-06T22:03:22.936Z,13.53
2023-05-06T22:05:53.432Z,13.56
2023-05-06T22:08:25.030Z,13.58
2023-05-06T22:10:56.679Z,13.59
2023-05-06T22:13:27.257Z,13.61
2023-05-06T22:15:57.988Z,13.62
2023-05-06T22:18:30.219Z,13.63
2023-05-06T22:21:00.661Z,13.65
2023-05-06T22:23:31.180Z,13.64
2023-05-06T22:26:01.655Z,13.61
2023-05-06T22:28:32.155Z,13.59
2023-05-06T22:31:03.035Z,13.57
2023-05-06T22:33:33.757Z,13.57
2023-05-06T22:36:04.646Z,13.54
2023-05-06T22:38:35.668Z,13.51
2023-05-06T22:41:06.152Z,13.49
2023-05-06T22:43:36.606Z,13.46
2023-05-06T22:46:07.482Z,13.44
2023-05-06T22:48:38.057Z,13.42
2023-05-06T22:51:08.650Z,13.40
2023-05-06T22:53:39.211Z,13.40
2023-05-06T22:56:10.356Z,13.39
2023-05-06T22:58:40.797Z,13.37
2023-05-06T23:01:12.029Z,13.35
2023-05-06T23:03:42.635Z,13.32
2023-05-06T23:06:13.178Z,13.30
2023-05-06T23:08:43.632Z,13.29
2023-05-06T23:11:14.082Z,13.29
2023-05-06T23:13:44.537Z,13.29
2023-05-06T23:16:15.080Z,13.29
2023-05-06T23:18:46.474Z,13.29
2023-05-06T23:21:16.910Z,13.29
2023-05-06T23:23:47.596Z,13.29
2023-05-06T23:26:18.136Z,13.29
2023-05-06T23:28:48.575Z,13.30
2023-05-06T23:31:19.234Z,13.30
2023-05-06T23:33:49.746Z,13.29
2023-05-06T23:36:20.174Z,13.29
2023-05-06T23:38:51.029Z,13.28
2023-05-06T23:41:21.428Z,13.27
2023-05-06T23:43:51.895Z,13.26
2023-05-06T23:46:22.489Z,13.26
2023-05-06T23:48:52.947Z,13.24
2023-05-06T23:51:23.410Z,13.24
2023-05-06T23:53:53.905Z,13.23
2023-05-06T23:56:24.309Z,13.22
2023-05-06T23:58:54.922Z,13.21
